sensor_id;sensor_type;location;lat;lon;timestamp;P1;durP1;ratioP1;P2;durP2;ratioP2
32491;SDS011;20605;49.742;18.802;2023-04-03T00:01:13;10.00;;;7.20;;
32491;SDS011;20605;49.742;18.802;2023-04-03T00:03:39;11.50;;;7.70;;
32491;SDS011;20605;49.742;18.802;2023-04-03T00:06:07;14.30;;;9.00;;
32491;SDS011;20605;49.742;18.802;2023-04-03T00:08:35;16.00;;;11.00;;
32491;SDS011;20605;49.742;18.802;2023-04-03T00:11:02;14.20;;;9.80;;
32491;SDS011;20605;49.742;18.802;2023-04-03T00:13:29;11.00;;;8.10;;
32491;SDS011;20605;49.742;18.802;2023-04-03T00:15:55;18.10;;;11.20;;
32491;SDS011;20605;49.742;18.802;2023-04-03T00:18:21;20.20;;;12.00;;
32491;SDS011;20605;49.742;18.802;2023-04-03T00:20:47;14.50;;;9.90;;
32491;SDS011;20605;49.742;18.802;2023-04-03T00:23:14;9.40;;;7.90;;
32491;SDS011;20605;49.742;18.802;2023-04-03T00:25:40;8.80;;;7.30;;
32491;SDS011;20605;49.742;18.802;2023-04-03T00:28:06;9.80;;;7.90;;
32491;SDS011;20605;49.742;18.802;2023-04-03T00:30:32;8.10;;;6.70;;
32491;SDS011;20605;49.742;18.802;2023-04-03T00:32:58;8.50;;;6.80;;
32491;SDS011;20605;49.742;18.802;2023-04-03T00:35:25;8.30;;;7.10;;
32491;SDS011;20605;49.742;18.802;2023-04-03T00:37:52;9.70;;;8.10;;
32491;SDS011;20605;49.742;18.802;2023-04-03T00:40:19;10.70;;;7.90;;
32491;SDS011;20605;49.742;18.802;2023-04-03T00:42:47;8.80;;;6.70;;
32491;SDS011;20605;49.742;18.802;2023-04-03T00:47:50;10.40;;;8.90;;
32491;SDS011;20605;49.742;18.802;2023-04-03T00:50:16;13.20;;;10.00;;
32491;SDS011;20605;49.742;18.802;2023-04-03T00:52:43;10.60;;;8.50;;
32491;SDS011;20605;49.742;18.802;2023-04-03T00:55:11;11.00;;;8.90;;
32491;SDS011;20605;49.742;18.802;2023-04-03T00:57:39;10.10;;;8.70;;
32491;SDS011;20605;49.742;18.802;2023-04-03T01:00:09;9.40;;;7.40;;
32491;SDS011;20605;49.742;18.802;2023-04-03T01:02:38;9.10;;;7.60;;
32491;SDS011;20605;49.742;18.802;2023-04-03T01:05:07;10.10;;;7.80;;
32491;SDS011;20605;49.742;18.802;2023-04-03T01:07:33;10.20;;;7.90;;
32491;SDS011;20605;49.742;18.802;2023-04-03T01:10:04;17.00;;;11.30;;
32491;SDS011;20605;49.742;18.802;2023-04-03T01:12:34;9.50;;;8.50;;
32491;SDS011;20605;49.742;18.802;2023-04-03T01:15:07;12.80;;;9.70;;
32491;SDS011;20605;49.742;18.802;2023-04-03T01:17:37;17.10;;;10.50;;
32491;SDS011;20605;49.742;18.802;2023-04-03T01:22:55;8.60;;;7.70;;
32491;SDS011;20605;49.742;18.802;2023-04-03T01:25:32;10.70;;;7.80;;
32491;SDS011;20605;49.742;18.802;2023-04-03T01:27:58;9.40;;;7.60;;
32491;SDS011;20605;49.742;18.802;2023-04-03T01:30:26;8.00;;;6.20;;
32491;SDS011;20605;49.742;18.802;2023-04-03T01:32:57;7.00;;;6.20;;
32491;SDS011;20605;49.742;18.802;2023-04-03T01:35:23;7.90;;;6.70;;
32491;SDS011;20605;49.742;18.802;2023-04-03T01:37:50;6.90;;;6.20;;
32491;SDS011;20605;49.742;18.802;2023-04-03T01:40:16;16.00;;;10.00;;
32491;SDS011;20605;49.742;18.802;2023-04-03T01:42:44;7.60;;;6.30;;
32491;SDS011;20605;49.742;18.802;2023-04-03T01:45:11;6.30;;;5.00;;
32491;SDS011;20605;49.742;18.802;2023-04-03T01:47:37;7.30;;;5.70;;
32491;SDS011;20605;49.742;18.802;2023-04-03T01:50:04;7.10;;;5.70;;
32491;SDS011;20605;49.742;18.802;2023-04-03T01:52:31;9.10;;;6.30;;
32491;SDS011;20605;49.742;18.802;2023-04-03T01:54:57;7.90;;;5.50;;
32491;SDS011;20605;49.742;18.802;2023-04-03T01:57:22;8.70;;;6.10;;
32491;SDS011;20605;49.742;18.802;2023-04-03T01:59:48;9.20;;;6.70;;
32491;SDS011;20605;49.742;18.802;2023-04-03T02:02:14;8.40;;;6.20;;
32491;SDS011;20605;49.742;18.802;2023-04-03T02:04:41;8.10;;;6.50;;
32491;SDS011;20605;49.742;18.802;2023-04-03T02:07:07;8.80;;;6.90;;
32491;SDS011;20605;49.742;18.802;2023-04-03T02:09:33;8.40;;;7.10;;
32491;SDS011;20605;49.742;18.802;2023-04-03T02:11:58;8.00;;;6.80;;
32491;SDS011;20605;49.742;18.802;2023-04-03T02:14:24;7.00;;;6.00;;
32491;SDS011;20605;49.742;18.802;2023-04-03T02:16:52;15.90;;;9.60;;
32491;SDS011;20605;49.742;18.802;2023-04-03T02:19:21;9.80;;;7.50;;
32491;SDS011;20605;49.742;18.802;2023-04-03T02:21:48;10.20;;;7.40;;
32491;SDS011;20605;49.742;18.802;2023-04-03T02:24:14;11.50;;;7.40;;
32491;SDS011;20605;49.742;18.802;2023-04-03T02:26:40;11.20;;;8.40;;
32491;SDS011;20605;49.742;18.802;2023-04-03T02:29:06;7.50;;;6.30;;
32491;SDS011;20605;49.742;18.802;2023-04-03T02:31:32;9.10;;;6.30;;
32491;SDS011;20605;49.742;18.802;2023-04-03T02:33:59;8.60;;;6.50;;
32491;SDS011;20605;49.742;18.802;2023-04-03T02:36:24;7.50;;;6.70;;
32491;SDS011;20605;49.742;18.802;2023-04-03T02:38:53;8.80;;;7.60;;
32491;SDS011;20605;49.742;18.802;2023-04-03T02:41:19;9.80;;;8.50;;
32491;SDS011;20605;49.742;18.802;2023-04-03T02:43:46;12.80;;;9.90;;
32491;SDS011;20605;49.742;18.802;2023-04-03T02:46:12;10.20;;;9.10;;
32491;SDS011;20605;49.742;18.802;2023-04-03T02:48:41;11.20;;;8.40;;
32491;SDS011;20605;49.742;18.802;2023-04-03T02:51:07;10.90;;;9.50;;
32491;SDS011;20605;49.742;18.802;2023-04-03T02:53:33;13.10;;;10.80;;
32491;SDS011;20605;49.742;18.802;2023-04-03T02:56:03;16.30;;;12.90;;
32491;SDS011;20605;49.742;18.802;2023-04-03T02:58:29;13.90;;;11.80;;
32491;SDS011;20605;49.742;18.802;2023-04-03T03:00:56;13.70;;;11.10;;
32491;SDS011;20605;49.742;18.802;2023-04-03T03:03:21;20.90;;;14.70;;
32491;SDS011;20605;49.742;18.802;2023-04-03T03:05:48;16.40;;;13.20;;
32491;SDS011;20605;49.742;18.802;2023-04-03T03:08:14;17.50;;;13.70;;
32491;SDS011;20605;49.742;18.802;2023-04-03T03:10:40;26.70;;;17.10;;
32491;SDS011;20605;49.742;18.802;2023-04-03T03:13:06;26.10;;;17.80;;
32491;SDS011;20605;49.742;18.802;2023-04-03T03:15:32;51.60;;;27.80;;
32491;SDS011;20605;49.742;18.802;2023-04-03T03:17:58;96.60;;;51.20;;
32491;SDS011;20605;49.742;18.802;2023-04-03T03:20:25;72.20;;;45.10;;
32491;SDS011;20605;49.742;18.802;2023-04-03T03:22:50;86.90;;;55.40;;
32491;SDS011;20605;49.742;18.802;2023-04-03T03:25:17;50.60;;;33.10;;
32491;SDS011;20605;49.742;18.802;2023-04-03T03:27:42;36.80;;;26.10;;
32491;SDS011;20605;49.742;18.802;2023-04-03T03:30:08;23.50;;;18.30;;
32491;SDS011;20605;49.742;18.802;2023-04-03T03:32:35;19.20;;;14.50;;
32491;SDS011;20605;49.742;18.802;2023-04-03T03:35:01;25.00;;;15.90;;
32491;SDS011;20605;49.742;18.802;2023-04-03T03:37:27;25.30;;;17.20;;
32491;SDS011;20605;49.742;18.802;2023-04-03T03:39:54;24.30;;;17.30;;
32491;SDS011;20605;49.742;18.802;2023-04-03T03:42:20;16.40;;;12.80;;
32491;SDS011;20605;49.742;18.802;2023-04-03T03:44:48;20.20;;;14.50;;
32491;SDS011;20605;49.742;18.802;2023-04-03T03:47:14;17.40;;;12.90;;
32491;SDS011;20605;49.742;18.802;2023-04-03T03:49:42;20.50;;;14.80;;
32491;SDS011;20605;49.742;18.802;2023-04-03T03:52:12;20.10;;;13.80;;
32491;SDS011;20605;49.742;18.802;2023-04-03T03:54:39;14.10;;;12.00;;
32491;SDS011;20605;49.742;18.802;2023-04-03T03:57:05;17.30;;;12.40;;
32491;SDS011;20605;49.742;18.802;2023-04-03T03:59:31;16.50;;;12.30;;
32491;SDS011;20605;49.742;18.802;2023-04-03T04:01:58;12.20;;;9.70;;
32491;SDS011;20605;49.742;18.802;2023-04-03T04:04:24;11.10;;;9.00;;
32491;SDS011;20605;49.742;18.802;2023-04-03T04:06:50;9.80;;;7.60;;
32491;SDS011;20605;49.742;18.802;2023-04-03T04:09:17;10.20;;;8.20;;
32491;SDS011;20605;49.742;18.802;2023-04-03T04:11:44;11.20;;;7.90;;
32491;SDS011;20605;49.742;18.802;2023-04-03T04:14:10;8.90;;;7.70;;
32491;SDS011;20605;49.742;18.802;2023-04-03T04:16:39;9.20;;;7.40;;
32491;SDS011;20605;49.742;18.802;2023-04-03T04:19:08;8.10;;;7.30;;
32491;SDS011;20605;49.742;18.802;2023-04-03T04:21:35;8.50;;;7.60;;
32491;SDS011;20605;49.742;18.802;2023-04-03T04:24:01;10.40;;;7.50;;
32491;SDS011;20605;49.742;18.802;2023-04-03T04:26:27;10.40;;;7.40;;
32491;SDS011;20605;49.742;18.802;2023-04-03T04:28:53;7.90;;;6.90;;
32491;SDS011;20605;49.742;18.802;2023-04-03T04:31:20;8.00;;;6.90;;
32491;SDS011;20605;49.742;18.802;2023-04-03T04:33:45;10.60;;;8.00;;
32491;SDS011;20605;49.742;18.802;2023-04-03T04:36:12;11.40;;;8.40;;
32491;SDS011;20605;49.742;18.802;2023-04-03T04:38:47;10.40;;;8.00;;
32491;SDS011;20605;49.742;18.802;2023-04-03T04:41:14;9.70;;;7.30;;
32491;SDS011;20605;49.742;18.802;2023-04-03T04:43:41;12.40;;;8.90;;
32491;SDS011;20605;49.742;18.802;2023-04-03T04:46:09;10.80;;;7.80;;
32491;SDS011;20605;49.742;18.802;2023-04-03T04:48:41;9.40;;;7.60;;
32491;SDS011;20605;49.742;18.802;2023-04-03T04:51:09;9.00;;;7.50;;
32491;SDS011;20605;49.742;18.802;2023-04-03T04:53:35;10.90;;;8.40;;
32491;SDS011;20605;49.742;18.802;2023-04-03T04:56:02;11.60;;;8.10;;
32491;SDS011;20605;49.742;18.802;2023-04-03T04:58:28;11.90;;;8.70;;
32491;SDS011;20605;49.742;18.802;2023-04-03T05:01:00;11.90;;;9.60;;
32491;SDS011;20605;49.742;18.802;2023-04-03T05:03:28;23.00;;;15.30;;
32491;SDS011;20605;49.742;18.802;2023-04-03T05:05:55;21.10;;;13.70;;
32491;SDS011;20605;49.742;18.802;2023-04-03T05:08:21;20.40;;;13.10;;
32491;SDS011;20605;49.742;18.802;2023-04-03T05:10:47;17.10;;;11.30;;
32491;SDS011;20605;49.742;18.802;2023-04-03T05:13:14;16.40;;;10.80;;
32491;SDS011;20605;49.742;18.802;2023-04-03T05:15:41;15.10;;;9.20;;
32491;SDS011;20605;49.742;18.802;2023-04-03T05:18:07;15.90;;;11.70;;
32491;SDS011;20605;49.742;18.802;2023-04-03T05:20:34;13.70;;;10.10;;
32491;SDS011;20605;49.742;18.802;2023-04-03T05:23:00;14.70;;;9.70;;
32491;SDS011;20605;49.742;18.802;2023-04-03T05:25:41;15.20;;;10.70;;
32491;SDS011;20605;49.742;18.802;2023-04-03T05:28:27;14.10;;;10.10;;
32491;SDS011;20605;49.742;18.802;2023-04-03T05:30:54;15.10;;;9.90;;
32491;SDS011;20605;49.742;18.802;2023-04-03T05:33:21;23.00;;;14.80;;
32491;SDS011;20605;49.742;18.802;2023-04-03T05:35:51;23.70;;;14.30;;
32491;SDS011;20605;49.742;18.802;2023-04-03T05:38:20;22.20;;;14.00;;
32491;SDS011;20605;49.742;18.802;2023-04-03T05:40:47;20.50;;;11.10;;
32491;SDS011;20605;49.742;18.802;2023-04-03T05:43:13;26.00;;;15.00;;
32491;SDS011;20605;49.742;18.802;2023-04-03T05:45:40;24.70;;;14.60;;
32491;SDS011;20605;49.742;18.802;2023-04-03T05:48:05;29.10;;;16.40;;
32491;SDS011;20605;49.742;18.802;2023-04-03T05:50:32;22.90;;;14.20;;
32491;SDS011;20605;49.742;18.802;2023-04-03T05:52:57;21.10;;;11.90;;
32491;SDS011;20605;49.742;18.802;2023-04-03T05:55:26;26.50;;;15.50;;
32491;SDS011;20605;49.742;18.802;2023-04-03T05:57:52;24.80;;;14.20;;
32491;SDS011;20605;49.742;18.802;2023-04-03T06:00:19;22.20;;;13.00;;
32491;SDS011;20605;49.742;18.802;2023-04-03T06:02:49;15.80;;;9.90;;
32491;SDS011;20605;49.742;18.802;2023-04-03T06:05:19;22.50;;;12.70;;
32491;SDS011;20605;49.742;18.802;2023-04-03T06:07:45;15.80;;;9.70;;
32491;SDS011;20605;49.742;18.802;2023-04-03T06:10:11;19.30;;;11.70;;
32491;SDS011;20605;49.742;18.802;2023-04-03T06:12:38;32.30;;;16.80;;
32491;SDS011;20605;49.742;18.802;2023-04-03T06:15:04;21.40;;;12.70;;
32491;SDS011;20605;49.742;18.802;2023-04-03T06:17:31;23.90;;;13.40;;
32491;SDS011;20605;49.742;18.802;2023-04-03T06:19:57;16.30;;;10.30;;
32491;SDS011;20605;49.742;18.802;2023-04-03T06:22:24;34.80;;;16.40;;
32491;SDS011;20605;49.742;18.802;2023-04-03T06:24:51;19.80;;;11.50;;
32491;SDS011;20605;49.742;18.802;2023-04-03T06:27:16;27.60;;;14.70;;
32491;SDS011;20605;49.742;18.802;2023-04-03T06:29:42;22.00;;;12.10;;
32491;SDS011;20605;49.742;18.802;2023-04-03T06:32:10;19.10;;;11.30;;
32491;SDS011;20605;49.742;18.802;2023-04-03T06:34:36;20.20;;;11.50;;
32491;SDS011;20605;49.742;18.802;2023-04-03T06:37:02;30.00;;;15.40;;
32491;SDS011;20605;49.742;18.802;2023-04-03T06:39:28;31.60;;;16.30;;
32491;SDS011;20605;49.742;18.802;2023-04-03T06:41:54;28.60;;;15.20;;
32491;SDS011;20605;49.742;18.802;2023-04-03T06:44:27;33.90;;;16.50;;
32491;SDS011;20605;49.742;18.802;2023-04-03T06:46:53;28.60;;;15.00;;
32491;SDS011;20605;49.742;18.802;2023-04-03T06:49:19;27.50;;;15.10;;
32491;SDS011;20605;49.742;18.802;2023-04-03T06:51:45;18.60;;;12.80;;
32491;SDS011;20605;49.742;18.802;2023-04-03T06:54:11;26.90;;;14.00;;
32491;SDS011;20605;49.742;18.802;2023-04-03T06:56:37;17.70;;;11.70;;
32491;SDS011;20605;49.742;18.802;2023-04-03T06:59:03;17.20;;;11.80;;
32491;SDS011;20605;49.742;18.802;2023-04-03T07:01:29;22.00;;;13.50;;
32491;SDS011;20605;49.742;18.802;2023-04-03T07:03:55;31.40;;;16.50;;
32491;SDS011;20605;49.742;18.802;2023-04-03T07:06:22;26.00;;;16.40;;
32491;SDS011;20605;49.742;18.802;2023-04-03T07:08:48;26.60;;;13.90;;
32491;SDS011;20605;49.742;18.802;2023-04-03T07:11:14;23.30;;;13.70;;
32491;SDS011;20605;49.742;18.802;2023-04-03T07:13:42;20.20;;;12.60;;
32491;SDS011;20605;49.742;18.802;2023-04-03T07:16:08;23.30;;;13.80;;
32491;SDS011;20605;49.742;18.802;2023-04-03T07:18:35;23.00;;;14.20;;
32491;SDS011;20605;49.742;18.802;2023-04-03T07:21:02;26.90;;;15.20;;
32491;SDS011;20605;49.742;18.802;2023-04-03T07:23:28;22.90;;;13.80;;
32491;SDS011;20605;49.742;18.802;2023-04-03T07:25:54;15.60;;;10.00;;
32491;SDS011;20605;49.742;18.802;2023-04-03T07:28:21;18.80;;;10.10;;
32491;SDS011;20605;49.742;18.802;2023-04-03T07:30:49;19.90;;;10.90;;
32491;SDS011;20605;49.742;18.802;2023-04-03T07:33:21;14.60;;;8.70;;
32491;SDS011;20605;49.742;18.802;2023-04-03T07:35:48;27.40;;;13.60;;
32491;SDS011;20605;49.742;18.802;2023-04-03T07:38:14;18.60;;;11.10;;
32491;SDS011;20605;49.742;18.802;2023-04-03T07:40:46;26.50;;;13.00;;
32491;SDS011;20605;49.742;18.802;2023-04-03T07:43:14;21.40;;;12.00;;
32491;SDS011;20605;49.742;18.802;2023-04-03T07:45:41;11.80;;;8.10;;
32491;SDS011;20605;49.742;18.802;2023-04-03T07:48:07;9.80;;;6.70;;
32491;SDS011;20605;49.742;18.802;2023-04-03T07:50:33;8.80;;;6.40;;
32491;SDS011;20605;49.742;18.802;2023-04-03T07:52:58;7.20;;;5.00;;
32491;SDS011;20605;49.742;18.802;2023-04-03T07:55:24;10.50;;;6.20;;
32491;SDS011;20605;49.742;18.802;2023-04-03T07:57:50;15.00;;;8.50;;
32491;SDS011;20605;49.742;18.802;2023-04-03T08:00:16;12.10;;;7.00;;
32491;SDS011;20605;49.742;18.802;2023-04-03T08:02:43;16.20;;;10.10;;
32491;SDS011;20605;49.742;18.802;2023-04-03T08:05:10;14.80;;;9.70;;
32491;SDS011;20605;49.742;18.802;2023-04-03T08:07:37;16.80;;;9.70;;
32491;SDS011;20605;49.742;18.802;2023-04-03T08:10:03;9.40;;;6.90;;
32491;SDS011;20605;49.742;18.802;2023-04-03T08:12:30;10.00;;;6.80;;
32491;SDS011;20605;49.742;18.802;2023-04-03T08:14:57;12.80;;;8.70;;
32491;SDS011;20605;49.742;18.802;2023-04-03T08:17:34;20.80;;;11.50;;
32491;SDS011;20605;49.742;18.802;2023-04-03T08:20:01;16.40;;;10.20;;
32491;SDS011;20605;49.742;18.802;2023-04-03T08:22:30;19.30;;;11.70;;
32491;SDS011;20605;49.742;18.802;2023-04-03T08:24:56;36.30;;;15.80;;
32491;SDS011;20605;49.742;18.802;2023-04-03T08:27:21;15.40;;;9.60;;
32491;SDS011;20605;49.742;18.802;2023-04-03T08:29:48;18.80;;;10.60;;
32491;SDS011;20605;49.742;18.802;2023-04-03T08:32:14;24.80;;;12.80;;
32491;SDS011;20605;49.742;18.802;2023-04-03T08:34:41;18.40;;;10.60;;
32491;SDS011;20605;49.742;18.802;2023-04-03T08:37:06;14.70;;;9.60;;
32491;SDS011;20605;49.742;18.802;2023-04-03T08:39:32;16.10;;;9.90;;
32491;SDS011;20605;49.742;18.802;2023-04-03T08:41:58;48.20;;;23.10;;
32491;SDS011;20605;49.742;18.802;2023-04-03T08:49:50;20.30;;;11.20;;
32491;SDS011;20605;49.742;18.802;2023-04-03T08:55:54;21.70;;;13.70;;
32491;SDS011;20605;49.742;18.802;2023-04-03T08:57:59;23.10;;;12.80;;
32491;SDS011;20605;49.742;18.802;2023-04-03T09:00:37;15.90;;;8.70;;
32491;SDS011;20605;49.742;18.802;2023-04-03T09:03:13;15.60;;;7.70;;
32491;SDS011;20605;49.742;18.802;2023-04-03T09:05:46;10.70;;;6.80;;
32491;SDS011;20605;49.742;18.802;2023-04-03T09:11:06;10.50;;;7.10;;
32491;SDS011;20605;49.742;18.802;2023-04-03T09:16:27;11.00;;;6.00;;
32491;SDS011;20605;49.742;18.802;2023-04-03T09:22:07;15.20;;;8.60;;
32491;SDS011;20605;49.742;18.802;2023-04-03T09:24:35;8.20;;;5.50;;
32491;SDS011;20605;49.742;18.802;2023-04-03T09:27:05;10.20;;;5.40;;
32491;SDS011;20605;49.742;18.802;2023-04-03T09:29:37;10.10;;;5.90;;
32491;SDS011;20605;49.742;18.802;2023-04-03T09:32:28;8.50;;;5.10;;
32491;SDS011;20605;49.742;18.802;2023-04-03T09:34:56;7.00;;;4.10;;
32491;SDS011;20605;49.742;18.802;2023-04-03T09:42:59;7.00;;;3.90;;
32491;SDS011;20605;49.742;18.802;2023-04-03T09:45:46;6.40;;;4.20;;
32491;SDS011;20605;49.742;18.802;2023-04-03T09:51:00;6.40;;;3.60;;
32491;SDS011;20605;49.742;18.802;2023-04-03T09:53:29;4.60;;;3.60;;
32491;SDS011;20605;49.742;18.802;2023-04-03T09:55:58;8.70;;;6.10;;
32491;SDS011;20605;49.742;18.802;2023-04-03T09:58:33;6.60;;;4.00;;
32491;SDS011;20605;49.742;18.802;2023-04-03T10:01:03;4.60;;;3.50;;
32491;SDS011;20605;49.742;18.802;2023-04-03T10:03:34;6.80;;;4.30;;
32491;SDS011;20605;49.742;18.802;2023-04-03T10:06:05;4.00;;;3.20;;
32491;SDS011;20605;49.742;18.802;2023-04-03T10:08:59;4.50;;;3.60;;
32491;SDS011;20605;49.742;18.802;2023-04-03T10:11:26;4.90;;;3.30;;
32491;SDS011;20605;49.742;18.802;2023-04-03T10:13:57;5.40;;;3.90;;
32491;SDS011;20605;49.742;18.802;2023-04-03T10:16:28;5.20;;;3.60;;
32491;SDS011;20605;49.742;18.802;2023-04-03T10:19:19;4.90;;;4.00;;
32491;SDS011;20605;49.742;18.802;2023-04-03T10:25:17;9.20;;;5.00;;
32491;SDS011;20605;49.742;18.802;2023-04-03T10:38:42;9.10;;;4.50;;
32491;SDS011;20605;49.742;18.802;2023-04-03T10:41:13;7.80;;;5.20;;
32491;SDS011;20605;49.742;18.802;2023-04-03T10:46:28;7.00;;;4.60;;
32491;SDS011;20605;49.742;18.802;2023-04-03T10:49:09;5.60;;;3.30;;
32491;SDS011;20605;49.742;18.802;2023-04-03T10:51:41;6.90;;;3.70;;
32491;SDS011;20605;49.742;18.802;2023-04-03T10:56:47;6.40;;;4.50;;
32491;SDS011;20605;49.742;18.802;2023-04-03T11:04:37;7.30;;;4.40;;
32491;SDS011;20605;49.742;18.802;2023-04-03T11:07:17;7.60;;;4.40;;
32491;SDS011;20605;49.742;18.802;2023-04-03T11:09:55;9.30;;;5.10;;
32491;SDS011;20605;49.742;18.802;2023-04-03T11:12:35;8.40;;;4.20;;
32491;SDS011;20605;49.742;18.802;2023-04-03T11:15:11;11.90;;;5.90;;
32491;SDS011;20605;49.742;18.802;2023-04-03T11:17:48;8.30;;;5.20;;
32491;SDS011;20605;49.742;18.802;2023-04-03T11:20:30;7.30;;;4.70;;
32491;SDS011;20605;49.742;18.802;2023-04-03T11:23:04;6.20;;;4.10;;
32491;SDS011;20605;49.742;18.802;2023-04-03T11:25:38;7.20;;;4.50;;
32491;SDS011;20605;49.742;18.802;2023-04-03T11:28:11;6.10;;;3.90;;
32491;SDS011;20605;49.742;18.802;2023-04-03T11:30:42;8.60;;;5.60;;
32491;SDS011;20605;49.742;18.802;2023-04-03T11:38:57;10.60;;;8.10;;
32491;SDS011;20605;49.742;18.802;2023-04-03T11:41:28;10.70;;;6.90;;
32491;SDS011;20605;49.742;18.802;2023-04-03T11:44:04;9.10;;;4.90;;
32491;SDS011;20605;49.742;18.802;2023-04-03T11:46:58;7.50;;;4.90;;
32491;SDS011;20605;49.742;18.802;2023-04-03T12:05:49;9.80;;;4.90;;
32491;SDS011;20605;49.742;18.802;2023-04-03T12:29:23;9.40;;;5.60;;
32491;SDS011;20605;49.742;18.802;2023-04-03T12:34:53;7.60;;;5.40;;
32491;SDS011;20605;49.742;18.802;2023-04-03T12:40:25;9.20;;;5.00;;
32491;SDS011;20605;49.742;18.802;2023-04-03T12:43:13;8.70;;;5.00;;
32491;SDS011;20605;49.742;18.802;2023-04-03T12:48:48;12.60;;;6.10;;
32491;SDS011;20605;49.742;18.802;2023-04-03T12:51:20;18.90;;;10.60;;
32491;SDS011;20605;49.742;18.802;2023-04-03T12:53:54;17.60;;;9.50;;
32491;SDS011;20605;49.742;18.802;2023-04-03T12:56:28;20.70;;;11.30;;
32491;SDS011;20605;49.742;18.802;2023-04-03T12:59:12;9.30;;;5.70;;
32491;SDS011;20605;49.742;18.802;2023-04-03T13:01:44;12.80;;;6.80;;
32491;SDS011;20605;49.742;18.802;2023-04-03T13:04:22;24.90;;;14.00;;
32491;SDS011;20605;49.742;18.802;2023-04-03T13:06:48;24.40;;;13.50;;
32491;SDS011;20605;49.742;18.802;2023-04-03T13:09:20;9.60;;;5.60;;
32491;SDS011;20605;49.742;18.802;2023-04-03T13:12:18;13.10;;;6.80;;
32491;SDS011;20605;49.742;18.802;2023-04-03T13:14:54;8.90;;;5.60;;
32491;SDS011;20605;49.742;18.802;2023-04-03T13:17:23;12.00;;;7.00;;
32491;SDS011;20605;49.742;18.802;2023-04-03T13:19:50;9.20;;;6.30;;
32491;SDS011;20605;49.742;18.802;2023-04-03T13:24:56;10.50;;;6.70;;
32491;SDS011;20605;49.742;18.802;2023-04-03T13:27:25;6.90;;;4.60;;
32491;SDS011;20605;49.742;18.802;2023-04-03T13:29:53;7.90;;;4.70;;
32491;SDS011;20605;49.742;18.802;2023-04-03T13:32:23;6.20;;;3.90;;
32491;SDS011;20605;49.742;18.802;2023-04-03T13:34:52;6.40;;;3.80;;
32491;SDS011;20605;49.742;18.802;2023-04-03T13:40:08;17.80;;;10.30;;
32491;SDS011;20605;49.742;18.802;2023-04-03T13:42:38;8.90;;;7.00;;
32491;SDS011;20605;49.742;18.802;2023-04-03T13:45:18;9.20;;;5.00;;
32491;SDS011;20605;49.742;18.802;2023-04-03T13:47:50;5.50;;;3.90;;
32491;SDS011;20605;49.742;18.802;2023-04-03T13:50:19;5.70;;;3.50;;
32491;SDS011;20605;49.742;18.802;2023-04-03T13:53:02;5.30;;;3.00;;
32491;SDS011;20605;49.742;18.802;2023-04-03T13:55:39;7.10;;;3.90;;
32491;SDS011;20605;49.742;18.802;2023-04-03T13:58:37;6.50;;;4.20;;
32491;SDS011;20605;49.742;18.802;2023-04-03T14:01:09;11.30;;;7.50;;
32491;SDS011;20605;49.742;18.802;2023-04-03T14:03:51;7.70;;;6.30;;
32491;SDS011;20605;49.742;18.802;2023-04-03T14:06:17;54.40;;;31.50;;
32491;SDS011;20605;49.742;18.802;2023-04-03T14:08:44;11.90;;;6.80;;
32491;SDS011;20605;49.742;18.802;2023-04-03T14:11:14;4.70;;;3.60;;
32491;SDS011;20605;49.742;18.802;2023-04-03T14:13:43;5.40;;;3.40;;
32491;SDS011;20605;49.742;18.802;2023-04-03T14:16:12;4.70;;;3.60;;
32491;SDS011;20605;49.742;18.802;2023-04-03T14:18:45;4.50;;;3.40;;
32491;SDS011;20605;49.742;18.802;2023-04-03T14:21:12;6.00;;;3.40;;
32491;SDS011;20605;49.742;18.802;2023-04-03T14:23:40;6.40;;;4.20;;
32491;SDS011;20605;49.742;18.802;2023-04-03T14:26:39;6.10;;;4.40;;
32491;SDS011;20605;49.742;18.802;2023-04-03T14:28:58;4.20;;;3.20;;
32491;SDS011;20605;49.742;18.802;2023-04-03T14:31:24;8.00;;;4.50;;
32491;SDS011;20605;49.742;18.802;2023-04-03T14:33:50;6.20;;;4.50;;
32491;SDS011;20605;49.742;18.802;2023-04-03T14:36:17;5.10;;;3.60;;
32491;SDS011;20605;49.742;18.802;2023-04-03T14:38:48;6.20;;;4.70;;
32491;SDS011;20605;49.742;18.802;2023-04-03T14:41:16;7.50;;;4.00;;
32491;SDS011;20605;49.742;18.802;2023-04-03T14:43:44;6.60;;;4.10;;
32491;SDS011;20605;49.742;18.802;2023-04-03T14:46:17;6.50;;;4.30;;
32491;SDS011;20605;49.742;18.802;2023-04-03T14:48:48;5.30;;;4.00;;
32491;SDS011;20605;49.742;18.802;2023-04-03T14:51:14;5.30;;;3.80;;
32491;SDS011;20605;49.742;18.802;2023-04-03T14:53:41;6.90;;;4.20;;
32491;SDS011;20605;49.742;18.802;2023-04-03T14:56:18;7.30;;;3.90;;
32491;SDS011;20605;49.742;18.802;2023-04-03T14:58:47;6.60;;;4.00;;
32491;SDS011;20605;49.742;18.802;2023-04-03T15:01:16;6.20;;;3.80;;
32491;SDS011;20605;49.742;18.802;2023-04-03T15:03:45;7.40;;;4.20;;
32491;SDS011;20605;49.742;18.802;2023-04-03T15:06:11;7.50;;;4.60;;
32491;SDS011;20605;49.742;18.802;2023-04-03T15:08:40;4.90;;;3.40;;
32491;SDS011;20605;49.742;18.802;2023-04-03T15:11:08;6.70;;;4.30;;
32491;SDS011;20605;49.742;18.802;2023-04-03T15:13:36;5.80;;;3.20;;
32491;SDS011;20605;49.742;18.802;2023-04-03T15:16:03;5.40;;;3.40;;
32491;SDS011;20605;49.742;18.802;2023-04-03T15:18:32;6.30;;;4.20;;
32491;SDS011;20605;49.742;18.802;2023-04-03T15:21:03;6.40;;;3.90;;
32491;SDS011;20605;49.742;18.802;2023-04-03T15:23:29;6.60;;;3.70;;
32491;SDS011;20605;49.742;18.802;2023-04-03T15:25:55;7.40;;;4.00;;
32491;SDS011;20605;49.742;18.802;2023-04-03T15:28:23;10.70;;;5.30;;
32491;SDS011;20605;49.742;18.802;2023-04-03T15:30:53;7.80;;;4.60;;
32491;SDS011;20605;49.742;18.802;2023-04-03T15:33:20;8.70;;;4.70;;
32491;SDS011;20605;49.742;18.802;2023-04-03T15:35:45;10.60;;;5.50;;
32491;SDS011;20605;49.742;18.802;2023-04-03T15:38:11;14.10;;;6.60;;
32491;SDS011;20605;49.742;18.802;2023-04-03T15:40:37;27.00;;;13.90;;
32491;SDS011;20605;49.742;18.802;2023-04-03T15:43:04;21.50;;;10.60;;
32491;SDS011;20605;49.742;18.802;2023-04-03T15:45:32;19.60;;;9.40;;
32491;SDS011;20605;49.742;18.802;2023-04-03T15:48:01;14.50;;;8.40;;
32491;SDS011;20605;49.742;18.802;2023-04-03T15:50:28;17.80;;;12.70;;
32491;SDS011;20605;49.742;18.802;2023-04-03T15:52:54;16.20;;;9.40;;
32491;SDS011;20605;49.742;18.802;2023-04-03T15:55:24;16.40;;;9.00;;
32491;SDS011;20605;49.742;18.802;2023-04-03T15:57:52;13.30;;;9.60;;
32491;SDS011;20605;49.742;18.802;2023-04-03T16:00:18;10.80;;;8.20;;
32491;SDS011;20605;49.742;18.802;2023-04-03T16:02:46;9.60;;;6.60;;
32491;SDS011;20605;49.742;18.802;2023-04-03T16:05:14;7.50;;;4.30;;
32491;SDS011;20605;49.742;18.802;2023-04-03T16:07:42;10.50;;;5.90;;
32491;SDS011;20605;49.742;18.802;2023-04-03T16:10:09;10.30;;;5.50;;
32491;SDS011;20605;49.742;18.802;2023-04-03T16:12:35;9.90;;;5.30;;
32491;SDS011;20605;49.742;18.802;2023-04-03T16:15:02;9.70;;;5.40;;
32491;SDS011;20605;49.742;18.802;2023-04-03T16:17:28;7.70;;;5.20;;
32491;SDS011;20605;49.742;18.802;2023-04-03T16:19:55;7.20;;;5.00;;
32491;SDS011;20605;49.742;18.802;2023-04-03T16:22:21;25.60;;;14.10;;
32491;SDS011;20605;49.742;18.802;2023-04-03T16:24:51;10.50;;;7.50;;
32491;SDS011;20605;49.742;18.802;2023-04-03T16:27:17;12.70;;;7.40;;